createdAt,value
2022-09-03T00:00:37.940Z,99.90
2022-09-03T00:03:19.419Z,99.90
2022-09-03T00:05:57.193Z,99.90
2022-09-03T00:08:44.420Z,99.90
2022-09-03T00:11:22.063Z,99.90
2022-09-03T00:14:03.143Z,99.90
2022-09-03T00:16:46.074Z,99.90
2022-09-03T00:19:22.655Z,99.90
2022-09-03T00:21:58.267Z,99.90
2022-09-03T00:24:36.182Z,99.90
2022-09-03T00:27:14.066Z,99.90
2022-09-03T00:29:54.108Z,99.90
2022-09-03T00:32:34.883Z,99.90
2022-09-03T00:35:11.968Z,99.90
2022-09-03T00:37:41.979Z,99.90
2022-09-03T00:40:32.732Z,99.90
2022-09-03T00:43:16.702Z,99.90
2022-09-03T00:46:07.045Z,99.90
2022-09-03T00:48:55.925Z,99.90
2022-09-03T00:51:37.272Z,99.90
2022-09-03T00:54:21.481Z,99.90
2022-09-03T00:57:07.242Z,99.90
2022-09-03T00:59:48.549Z,99.90
2022-09-03T01:02:33.962Z,99.90
2022-09-03T01:05:20.993Z,99.90
2022-09-03T01:08:08.136Z,99.90
2022-09-03T01:10:57.176Z,99.90
2022-09-03T01:13:38.525Z,99.90
2022-09-03T01:16:22.018Z,99.90
2022-09-03T01:19:08.922Z,99.90
2022-09-03T01:22:10.252Z,99.90
2022-09-03T01:25:17.524Z,99.90
2022-09-03T01:28:13.551Z,99.90
2022-09-03T01:30:52.016Z,99.90
2022-09-03T01:33:32.561Z,99.90
2022-09-03T01:36:17.063Z,99.90
2022-09-03T01:38:56.527Z,99.90
2022-09-03T01:42:05.049Z,99.90
2022-09-03T01:44:52.914Z,99.90
2022-09-03T01:47:37.967Z,99.90
2022-09-03T01:50:17.623Z,99.90
2022-09-03T01:53:00.213Z,99.90
2022-09-03T01:55:40.869Z,99.90
2022-09-03T01:58:17.124Z,99.90
2022-09-03T02:00:59.323Z,99.90
2022-09-03T02:03:40.933Z,99.90
2022-09-03T02:06:13.860Z,99.90
2022-09-03T02:08:44.667Z,99.90
2022-09-03T02:11:15.007Z,99.90
2022-09-03T02:13:49.521Z,99.90
2022-09-03T02:16:29.258Z,99.90
2022-09-03T02:19:04.073Z,99.90
2022-09-03T02:21:39.479Z,99.90
2022-09-03T02:24:12.284Z,99.90
2022-09-03T02:26:42.596Z,99.90
2022-09-03T02:29:14.241Z,99.90
2022-09-03T02:31:46.084Z,99.90
2022-09-03T02:34:16.396Z,99.90
2022-09-03T02:36:48.944Z,99.90
2022-09-03T02:39:20.242Z,99.90
2022-09-03T02:41:59.217Z,99.90
2022-09-03T02:44:34.065Z,99.90
2022-09-03T02:47:10.151Z,99.90
2022-09-03T02:49:40.333Z,99.90
2022-09-03T02:52:12.521Z,99.90
2022-09-03T02:54:45.112Z,99.90
2022-09-03T02:57:23.083Z,99.90
2022-09-03T02:59:58.483Z,99.90
2022-09-03T03:02:30.108Z,99.90
2022-09-03T03:05:00.485Z,99.90
2022-09-03T03:07:33.586Z,99.90
2022-09-03T03:10:03.812Z,99.90
2022-09-03T03:12:34.366Z,99.90
2022-09-03T03:15:04.630Z,99.90
2022-09-03T03:17:36.176Z,99.90
2022-09-03T03:20:08.373Z,99.90
2022-09-03T03:22:38.641Z,99.90
2022-09-03T03:25:10.213Z,99.90
2022-09-03T03:27:42.213Z,99.90
2022-09-03T03:30:14.205Z,99.90
2022-09-03T03:32:45.404Z,99.90
2022-09-03T03:35:15.593Z,99.90
2022-09-03T03:37:45.661Z,99.90
2022-09-03T03:40:16.721Z,99.90
2022-09-03T03:42:46.928Z,99.90
2022-09-03T03:45:17.416Z,99.90
2022-09-03T03:47:49.274Z,99.90
2022-09-03T03:50:19.658Z,99.90
2022-09-03T03:52:49.887Z,99.90
2022-09-03T03:55:20.331Z,99.90
2022-09-03T03:57:50.375Z,99.90
2022-09-03T04:00:20.805Z,99.90
2022-09-03T04:02:52.787Z,99.90
2022-09-03T04:05:23.147Z,99.90
2022-09-03T04:07:54.111Z,99.90
2022-09-03T04:10:24.495Z,99.90
2022-09-03T04:12:57.700Z,99.90
2022-09-03T04:15:27.893Z,99.90
2022-09-03T04:18:00.611Z,99.90
2022-09-03T04:20:30.942Z,99.90
2022-09-03T04:23:04.098Z,99.90
2022-09-03T04:25:34.585Z,99.90
2022-09-03T04:28:05.114Z,99.90
2022-09-03T04:30:35.459Z,99.90
2022-09-03T04:33:07.445Z,99.90
2022-09-03T04:35:46.644Z,99.90
2022-09-03T04:38:17.234Z,99.90
2022-09-03T04:40:52.662Z,99.90
2022-09-03T04:43:22.827Z,99.90
2022-09-03T04:45:53.082Z,99.90
2022-09-03T04:48:24.854Z,99.90
2022-09-03T04:50:55.964Z,99.90
2022-09-03T04:53:26.222Z,99.90
2022-09-03T04:55:56.075Z,99.90
2022-09-03T04:58:26.238Z,99.90
2022-09-03T05:00:56.714Z,99.90
2022-09-03T05:03:29.171Z,99.90
2022-09-03T05:05:59.703Z,99.90
2022-09-03T05:08:29.907Z,99.90
2022-09-03T05:11:02.654Z,99.90
2022-09-03T05:13:33.562Z,99.90
2022-09-03T05:16:06.406Z,99.90
2022-09-03T05:18:39.923Z,99.90
2022-09-03T05:21:12.328Z,99.90
2022-09-03T05:23:44.391Z,99.90
2022-09-03T05:26:17.612Z,99.90
2022-09-03T05:28:49.216Z,99.90
2022-09-03T05:31:21.518Z,99.90
2022-09-03T05:33:57.793Z,99.90
2022-09-03T05:36:31.020Z,99.90
2022-09-03T05:39:02.515Z,99.90
2022-09-03T05:41:34.072Z,99.90
2022-09-03T05:44:06.091Z,99.90
2022-09-03T05:46:37.758Z,99.90
2022-09-03T05:49:11.614Z,99.90
2022-09-03T05:51:42.586Z,99.90
2022-09-03T05:54:13.521Z,99.90
2022-09-03T05:56:44.037Z,99.90
2022-09-03T05:59:14.705Z,99.90
2022-09-03T06:01:50.344Z,99.90
2022-09-03T06:04:23.312Z,99.90
2022-09-03T06:06:53.815Z,99.90
2022-09-03T06:09:25.264Z,99.90
2022-09-03T06:11:57.238Z,99.90
2022-09-03T06:14:27.321Z,99.90
2022-09-03T06:16:57.554Z,99.90
2022-09-03T06:19:28.782Z,99.90
2022-09-03T06:21:58.984Z,99.90
2022-09-03T06:24:29.733Z,99.90
2022-09-03T06:27:00.304Z,99.90
2022-09-03T06:29:30.834Z,99.90
2022-09-03T06:32:02.238Z,99.90
2022-09-03T06:34:33.744Z,99.90
2022-09-03T06:37:03.840Z,99.90
2022-09-03T06:39:34.185Z,99.90
2022-09-03T06:42:04.936Z,99.90
2022-09-03T06:44:39.521Z,99.90
2022-09-03T06:47:09.634Z,99.90
2022-09-03T06:49:41.008Z,99.90
2022-09-03T06:52:11.066Z,99.90
2022-09-03T06:54:41.091Z,99.90
2022-09-03T06:57:11.251Z,99.90
2022-09-03T06:59:41.420Z,99.90
2022-09-03T07:02:11.648Z,99.90
2022-09-03T07:04:43.529Z,99.90
2022-09-03T07:07:16.279Z,99.90
2022-09-03T07:09:48.324Z,99.90
2022-09-03T07:12:19.304Z,99.90
2022-09-03T07:14:51.106Z,99.90
2022-09-03T07:17:21.687Z,99.90
2022-09-03T07:19:53.229Z,99.90
2022-09-03T07:22:23.276Z,99.90
2022-09-03T07:25:02.393Z,99.90
2022-09-03T07:27:32.321Z,99.90
2022-09-03T07:30:03.434Z,99.90
2022-09-03T07:32:34.314Z,99.90
2022-09-03T07:35:06.077Z,99.90
2022-09-03T07:37:37.509Z,99.90
2022-09-03T07:40:08.790Z,99.90
2022-09-03T07:42:40.140Z,99.90
2022-09-03T07:45:12.804Z,99.90
2022-09-03T07:47:49.913Z,99.90
2022-09-03T07:50:21.324Z,99.90
2022-09-03T07:52:51.557Z,99.90
2022-09-03T07:55:21.457Z,99.90
2022-09-03T07:57:51.366Z,99.90
2022-09-03T08:00:21.403Z,99.90
2022-09-03T08:02:52.543Z,99.90
2022-09-03T08:05:27.185Z,99.90
2022-09-03T08:07:57.241Z,99.90
2022-09-03T08:10:30.535Z,99.90
2022-09-03T08:13:01.122Z,99.90
2022-09-03T08:15:31.697Z,99.90
2022-09-03T08:18:03.688Z,99.90
2022-09-03T08:20:38.749Z,99.90
2022-09-03T08:23:09.159Z,99.90
2022-09-03T08:25:39.652Z,99.90
2022-09-03T08:28:10.066Z,99.90
2022-09-03T08:30:41.480Z,99.90
2022-09-03T08:33:11.835Z,99.90
2022-09-03T08:35:43.491Z,99.90
2022-09-03T08:38:15.508Z,99.90
2022-09-03T08:40:46.125Z,99.90
2022-09-03T08:43:20.593Z,99.90
2022-09-03T08:45:51.138Z,99.90
2022-09-03T08:48:28.308Z,99.90
2022-09-03T08:51:07.518Z,99.90
2022-09-03T08:53:50.405Z,99.90
2022-09-03T08:56:29.186Z,99.90
2022-09-03T08:59:01.879Z,99.90
2022-09-03T09:01:47.999Z,99.90
2022-09-03T09:04:35.021Z,99.90
2022-09-03T09:07:18.236Z,99.90
2022-09-03T09:10:01.297Z,99.90
2022-09-03T09:12:46.962Z,99.90
2022-09-03T09:15:31.529Z,99.90
2022-09-03T09:18:17.263Z,99.90
2022-09-03T09:20:54.650Z,99.90
2022-09-03T09:23:35.765Z,99.90
2022-09-03T09:26:14.197Z,99.90
2022-09-03T09:28:47.803Z,99.90
2022-09-03T09:31:21.920Z,99.90
2022-09-03T09:33:52.540Z,99.90
2022-09-03T09:36:23.626Z,99.90
2022-09-03T09:38:56.359Z,99.90
2022-09-03T09:41:29.875Z,99.90
2022-09-03T09:44:06.239Z,99.90
2022-09-03T09:46:42.183Z,99.90
2022-09-03T09:49:33.198Z,99.90
2022-09-03T09:52:12.946Z,99.90
2022-09-03T09:54:46.828Z,99.20
2022-09-03T09:57:22.908Z,99.90
2022-09-03T10:00:04.530Z,99.70
2022-09-03T10:02:48.842Z,99.90
2022-09-03T10:05:25.137Z,99.40
2022-09-03T10:08:00.833Z,99.40
2022-09-03T10:10:37.968Z,98.80
2022-09-03T10:13:15.304Z,98.70
2022-09-03T10:15:56.772Z,98.50
2022-09-03T10:18:38.113Z,98.90
2022-09-03T10:21:19.177Z,98.10
2022-09-03T10:24:03.711Z,97.00
2022-09-03T10:26:40.051Z,96.10
2022-09-03T10:29:11.436Z,96.70
2022-09-03T10:32:00.772Z,96.80
2022-09-03T10:34:40.793Z,96.80
2022-09-03T10:37:25.952Z,96.40
2022-09-03T10:40:17.843Z,96.20
2022-09-03T10:43:17.577Z,96.30
2022-09-03T10:46:03.173Z,96.40
2022-09-03T10:49:13.440Z,95.80
2022-09-03T10:51:50.660Z,95.40
2022-09-03T10:54:40.292Z,95.30
2022-09-03T10:57:22.472Z,95.70
2022-09-03T11:00:09.851Z,95.30
2022-09-03T11:03:27.147Z,94.80
2022-09-03T11:06:06.283Z,94.60
2022-09-03T11:08:46.298Z,94.20
2022-09-03T11:11:26.519Z,94.60
2022-09-03T11:14:05.996Z,94.80
2022-09-03T11:16:44.717Z,94.20
2022-09-03T11:19:19.259Z,94.10
2022-09-03T11:21:54.316Z,94.30
2022-09-03T11:24:28.129Z,93.30
2022-09-03T11:27:09.251Z,93.10
2022-09-03T11:29:53.904Z,93.30
2022-09-03T11:32:33.750Z,93.00
2022-09-03T11:35:14.190Z,92.90
2022-09-03T11:37:59.018Z,93.10
2022-09-03T11:40:36.562Z,93.10
2022-09-03T11:43:27.395Z,93.20
2022-09-03T11:46:11.871Z,92.50
2022-09-03T11:48:47.522Z,92.50
2022-09-03T11:51:35.670Z,92.20
2022-09-03T11:54:09.650Z,91.80
2022-09-03T11:56:40.311Z,91.60
2022-09-03T11:59:24.593Z,91.70
2022-09-03T12:01:59.532Z,91.80
2022-09-03T12:04:46.715Z,91.90
2022-09-03T12:07:48.319Z,91.60
2022-09-03T12:10:49.004Z,91.80
2022-09-03T12:13:34.398Z,91.70
2022-09-03T12:16:57.404Z,91.10
2022-09-03T12:19:40.881Z,91.80
2022-09-03T12:22:16.238Z,91.40
2022-09-03T12:24:46.564Z,91.20
2022-09-03T12:27:24.649Z,91.20
2022-09-03T12:29:59.403Z,90.50
2022-09-03T12:32:32.277Z,90.60
2022-09-03T12:35:58.088Z,90.30
2022-09-03T12:38:08.121Z,90.20
2022-09-03T12:43:43.277Z,89.90
2022-09-03T12:46:17.744Z,90.00
2022-09-03T12:51:51.203Z,90.40
2022-09-03T12:54:24.637Z,89.20
2022-09-03T12:57:00.902Z,89.80
2022-09-03T12:59:34.175Z,90.50
2022-09-03T13:02:13.106Z,90.10
2022-09-03T13:04:44.693Z,90.30
2022-09-03T13:07:25.592Z,90.40
2022-09-03T13:10:03.780Z,90.30
2022-09-03T13:12:43.903Z,88.10
2022-09-03T13:15:23.615Z,89.30
2022-09-03T13:18:25.766Z,87.30
2022-09-03T13:21:18.736Z,87.30
2022-09-03T13:24:07.255Z,88.70
2022-09-03T13:26:55.578Z,89.20
2022-09-03T13:29:44.570Z,89.30
2022-09-03T13:32:43.098Z,89.80
2022-09-03T13:35:34.180Z,90.20
2022-09-03T13:38:20.373Z,90.30
2022-09-03T13:40:59.716Z,90.60
2022-09-03T13:43:38.556Z,90.80
2022-09-03T13:46:13.266Z,90.50
2022-09-03T13:49:02.677Z,90.80
2022-09-03T13:51:43.434Z,91.00
2022-09-03T13:54:42.849Z,90.60
2022-09-03T13:57:34.394Z,90.50
2022-09-03T14:00:08.921Z,90.60
2022-09-03T14:02:56.990Z,90.30
2022-09-03T14:05:45.865Z,90.40
2022-09-03T14:08:28.912Z,90.50
2022-09-03T14:11:10.116Z,90.40
2022-09-03T14:14:07.398Z,91.00
2022-09-03T14:16:48.064Z,91.20
2022-09-03T14:19:33.817Z,91.20
2022-09-03T14:22:12.490Z,91.00
2022-09-03T14:24:52.973Z,90.70
2022-09-03T14:27:28.306Z,90.90
2022-09-03T14:30:06.429Z,90.70
2022-09-03T14:32:51.674Z,90.50
2022-09-03T14:35:54.990Z,91.10
2022-09-03T14:38:53.170Z,91.40
2022-09-03T14:42:11.767Z,91.20
2022-09-03T14:45:35.769Z,91.50
2022-09-03T14:48:33.675Z,91.60
2022-09-03T14:51:25.195Z,91.90
2022-09-03T14:54:28.662Z,91.70
2022-09-03T14:57:21.881Z,91.90
2022-09-03T15:00:15.539Z,91.90
2022-09-03T15:03:39.960Z,92.10
2022-09-03T15:06:33.634Z,92.10
2022-09-03T15:09:32.635Z,92.20
2022-09-03T15:12:09.848Z,92.20
2022-09-03T15:14:51.328Z,92.30
2022-09-03T15:17:41.683Z,92.20
2022-09-03T15:20:29.358Z,92.10
2022-09-03T15:23:25.069Z,92.10
2022-09-03T15:26:24.844Z,92.10
2022-09-03T15:29:30.915Z,92.20
2022-09-03T15:32:14.381Z,92.30
2022-09-03T15:35:06.955Z,92.40
2022-09-03T15:37:46.448Z,92.60
2022-09-03T15:40:29.898Z,92.50
2022-09-03T15:43:09.664Z,92.60
2022-09-03T15:45:57.359Z,92.70
2022-09-03T15:48:39.260Z,93.20
2022-09-03T15:51:19.625Z,93.30
2022-09-03T15:53:58.795Z,93.50
2022-09-03T15:56:40.540Z,93.40
2022-09-03T15:59:19.703Z,93.30
2022-09-03T16:02:00.646Z,93.40
2022-09-03T16:05:05.733Z,93.70
2022-09-03T16:08:06.020Z,93.80
2022-09-03T16:10:50.983Z,93.90
2022-09-03T16:13:54.096Z,94.10
2022-09-03T16:16:32.085Z,94.30
2022-09-03T16:19:18.053Z,94.30
2022-09-03T16:22:01.211Z,94.30
2022-09-03T16:24:44.349Z,94.60
2022-09-03T16:27:24.006Z,94.60
2022-09-03T16:30:02.525Z,94.70
2022-09-03T16:32:58.645Z,94.70
2022-09-03T16:35:47.477Z,94.90
2022-09-03T16:38:35.011Z,94.80
2022-09-03T16:41:23.345Z,94.90
2022-09-03T16:44:10.032Z,95.00
2022-09-03T16:46:56.204Z,95.00
2022-09-03T16:49:45.242Z,95.00
2022-09-03T16:52:38.199Z,95.10
2022-09-03T16:55:24.156Z,95.20
2022-09-03T16:58:16.103Z,95.60
2022-09-03T17:01:06.873Z,96.00
2022-09-03T17:04:32.091Z,95.90
2022-09-03T17:07:33.313Z,96.00
2022-09-03T17:10:15.976Z,96.10
2022-09-03T17:12:56.235Z,96.10
2022-09-03T17:15:41.693Z,96.20
2022-09-03T17:18:42.954Z,96.30
2022-09-03T17:21:35.240Z,96.30
2022-09-03T17:24:24.338Z,96.50
2022-09-03T17:27:14.305Z,96.70
2022-09-03T17:30:07.193Z,96.80
2022-09-03T17:33:34.797Z,97.10
2022-09-03T17:36:15.968Z,97.30
2022-09-03T17:39:28.408Z,97.60
2022-09-03T17:42:05.144Z,97.50
2022-09-03T17:44:59.484Z,97.80
2022-09-03T17:48:11.279Z,98.10
2022-09-03T17:50:52.160Z,97.80
2022-09-03T17:53:31.832Z,97.70
2022-09-03T17:56:06.233Z,98.40
2022-09-03T17:58:44.802Z,99.90
2022-09-03T18:01:22.300Z,99.90
2022-09-03T18:04:02.183Z,99.90
2022-09-03T18:06:45.462Z,99.90
2022-09-03T18:09:37.756Z,99.90
2022-09-03T18:12:16.617Z,99.90
2022-09-03T18:14:56.908Z,99.90
2022-09-03T18:17:36.549Z,99.90
2022-09-03T18:20:29.943Z,99.90
2022-09-03T18:23:26.013Z,99.90
2022-09-03T18:26:20.363Z,99.90
2022-09-03T18:29:17.513Z,99.90
2022-09-03T18:32:05.129Z,99.90
2022-09-03T18:34:55.120Z,99.90
2022-09-03T18:37:46.407Z,99.90
2022-09-03T18:40:42.546Z,99.90
2022-09-03T18:43:42.456Z,99.90
2022-09-03T18:48:02.300Z,99.90
2022-09-03T18:50:02.342Z,99.90
2022-09-03T18:53:03.822Z,99.90
2022-09-03T18:56:09.290Z,99.90
2022-09-03T18:59:17.849Z,99.90
2022-09-03T19:02:06.272Z,99.90
2022-09-03T19:05:15.197Z,99.90
2022-09-03T19:08:15.496Z,99.90
2022-09-03T19:11:13.333Z,99.90
2022-09-03T19:14:04.541Z,99.90
2022-09-03T19:17:11.411Z,99.90
2022-09-03T19:20:25.351Z,99.90
2022-09-03T19:23:13.162Z,99.90
2022-09-03T19:26:01.775Z,99.90
2022-09-03T19:28:55.237Z,99.90
2022-09-03T19:32:02.136Z,99.90
2022-09-03T19:35:24.637Z,99.90
2022-09-03T19:38:32.183Z,99.90
2022-09-03T19:41:35.755Z,99.90
2022-09-03T19:44:49.489Z,99.90
2022-09-03T19:47:51.917Z,99.90
2022-09-03T19:50:45.768Z,99.90
2022-09-03T19:53:40.243Z,99.90
2022-09-03T19:56:37.616Z,99.90
2022-09-03T19:59:36.750Z,99.90
2022-09-03T20:02:24.606Z,99.90
2022-09-03T20:05:20.486Z,99.90
2022-09-03T20:08:14.231Z,99.90
2022-09-03T20:10:48.424Z,99.90
2022-09-03T20:13:21.560Z,99.90
2022-09-03T20:16:04.735Z,99.90
2022-09-03T20:18:50.974Z,99.90
2022-09-03T20:21:32.759Z,99.90
2022-09-03T20:24:17.540Z,99.90
2022-09-03T20:27:02.474Z,99.90
2022-09-03T20:29:57.489Z,99.90
2022-09-03T20:32:57.851Z,99.90
2022-09-03T20:35:44.158Z,99.90
2022-09-03T20:38:58.234Z,99.90
2022-09-03T20:41:38.706Z,99.90
2022-09-03T20:44:29.548Z,99.90
2022-09-03T20:47:21.216Z,99.90
2022-09-03T20:50:05.452Z,99.90
2022-09-03T20:52:51.755Z,99.90
2022-09-03T20:55:27.178Z,99.90
2022-09-03T20:58:07.543Z,99.90
2022-09-03T21:00:49.230Z,99.90
2022-09-03T21:03:25.498Z,99.90
2022-09-03T21:06:15.172Z,99.90
2022-09-03T21:09:04.270Z,99.90
2022-09-03T21:11:47.857Z,99.90
2022-09-03T21:14:35.144Z,99.90
2022-09-03T21:17:25.472Z,99.90
2022-09-03T21:20:15.948Z,99.90
2022-09-03T21:23:05.260Z,99.90
2022-09-03T21:25:42.294Z,99.90
2022-09-03T21:28:22.860Z,99.90
2022-09-03T21:31:00.061Z,99.90
2022-09-03T21:33:36.252Z,99.90
2022-09-03T21:36:15.843Z,99.90
2022-09-03T21:38:57.362Z,99.90
2022-09-03T21:41:37.728Z,99.90
2022-09-03T21:44:19.026Z,99.90
2022-09-03T21:46:59.152Z,99.90
2022-09-03T21:49:39.451Z,99.90
2022-09-03T21:52:16.994Z,99.90
2022-09-03T21:54:47.577Z,99.90
2022-09-03T21:57:26.138Z,99.90
2022-09-03T22:00:19.625Z,99.90
2022-09-03T22:02:52.498Z,99.90
2022-09-03T22:05:23.118Z,99.90
2022-09-03T22:08:24.359Z,99.90
2022-09-03T22:11:10.719Z,99.90
2022-09-03T22:13:54.561Z,99.90
2022-09-03T22:16:34.000Z,99.90
2022-09-03T22:19:05.303Z,99.90
2022-09-03T22:21:45.539Z,99.90
2022-09-03T22:24:26.056Z,99.90
2022-09-03T22:27:04.410Z,99.90
2022-09-03T22:29:47.225Z,99.90
2022-09-03T22:32:49.634Z,99.90
2022-09-03T22:35:49.161Z,99.90
2022-09-03T22:39:11.694Z,99.90
2022-09-03T22:42:18.867Z,99.90
2022-09-03T22:45:24.004Z,99.90
2022-09-03T22:48:13.771Z,99.90
2022-09-03T22:50:57.566Z,99.90
2022-09-03T22:53:50.013Z,99.90
2022-09-03T22:56:22.889Z,99.90
2022-09-03T22:59:03.494Z,99.90
2022-09-03T23:01:43.878Z,99.90
2022-09-03T23:04:28.783Z,99.90
2022-09-03T23:07:08.537Z,99.90
2022-09-03T23:09:44.322Z,99.90
2022-09-03T23:12:22.644Z,99.90
2022-09-03T23:14:58.474Z,99.90
2022-09-03T23:22:54.438Z,99.90
2022-09-03T23:25:31.265Z,99.90
2022-09-03T23:28:09.673Z,99.90
2022-09-03T23:30:41.235Z,99.90
2022-09-03T23:33:11.807Z,99.90
2022-09-03T23:35:56.061Z,99.90
2022-09-03T23:38:38.231Z,99.90
2022-09-03T23:41:15.895Z,99.90
2022-09-03T23:44:03.871Z,99.90
2022-09-03T23:46:43.681Z,99.90
2022-09-03T23:49:37.163Z,99.90
2022-09-03T23:52:32.233Z,99.90
2022-09-03T23:55:19.996Z,99.90
2022-09-03T23:58:00.322Z,99.90
